Driscoll, ND (58532)

6:35 PM CST on February 13, 2016 (GMT -0600)
Bismarck Municipal | | Change Station
CLOSE
Current Station
Airport
Location: Bismarck,
Elevation: 1660 ft
Nearby Weather Stations
Active Advisory: Winter Weather Advisory

Elev 1660 ft 46.78 °N, 100.76 °W | Updated 5 minutes ago

Snow
Snow
18 °F
Feels Like 4 °F
N
15
Wind Variable Wind from SSE

Today
High -- | Low -- °F
--% Chance of Precip.
Yesterday
High -- | Low -- °F
Precip. -- in
Pressure 29.94 in
Visibility 1.5 miles
Clouds Scattered Clouds 1400 ft
Overcast 1900 ft
Windchill 4 °F
Dew Point 12 °F
Humidity 78%
Rainfall 0.06 in
Snow Depth Not available.
7:48 AM 6:01 PM
Waxing Crescent, 35% visible
SPECI KBIS 140030Z 16013KT 1 1/2SM -SN SCT014 OVC019 M08/M11 A2994 RMK AO2 P0002 T10781111
Pressure 29.94 in
Visibility 1.5 miles
Clouds Scattered Clouds 1400 ft
Overcast 1900 ft
Windchill 4 °F
Dew Point 12 °F
Humidity 78%
Rainfall 0.06 in
Snow Depth Not available.
7:48 AM 6:01 PM
Waxing Crescent, 35% visible
SPECI KBIS 140030Z 16013KT 1 1/2SM -SN SCT014 OVC019 M08/M11 A2994 RMK AO2 P0002 T10781111

10-Day Weather Forecast

Almanac

Astronomy

Feb. 13, 2016 Rise Set
Actual Time
Civil Twilight
Nautical Twilight
Astronomical Twilight
Moon
Length of Visible Light
Length of Day
Tomorrow will be .
, % of the Moon is Illuminated

Today's Extremes

State Highs State Lows

Community

WunderPhotos

Upload Photos

1,892,712 photos uploaded!

WunderBlog® & News

Nearby

Air Quality

  Air Quality AQ Index Pollutant
Not available.

Snow Depth

Station Depth Elevation

Earthquake Activity

City Distance Mag. Time & Date
Minimum magnitude displayed is 2.5.

Coastal Water Temperatures

Place Temperature

Stations

Nearby Weather Stations

Station Location Temp. Windchill Dew Point Humidity Wind Precip. Elev Updated Type
                   

Watches & Warnings

Winter Weather Advisory
Issued: 6:19 PM CST Feb. 13, 2016 – National Weather Service

... Winter Weather Advisory remains in effect until 6 am CST
Sunday...

* expect snow to continue... diminishing around 6 am Sunday.

* The heaviest snowfall rates will occur until midnight tonight.

* Total snow accumulations of 2 to 5 inches are expected... .with
localized amounts up to 6 inches possible.

* Winds gusting as high as 35 mph will cause patchy blowing and
drifting snow... with some reductions to visibility expected.

* Plan on slippery Road conditions.

Precautionary/preparedness actions...

A Winter Weather Advisory for snow means periods of snow will
cause primarily travel difficulties. Be prepared for snow covered
roads and limited visibilities... and use caution while driving.
The latest Road conditions for the state you are calling from can
be obtained by calling 5 1 1.

Waa